createdAt,value
2023-04-24T00:00:48.096Z,98606.20
2023-04-24T00:04:48.039Z,98598.61
2023-04-24T00:08:46.045Z,98600.80
2023-04-24T00:12:43.990Z,98593.33
2023-04-24T00:16:42.010Z,98588.05
2023-04-24T00:20:40.004Z,98589.11
2023-04-24T00:24:37.988Z,98582.55
2023-04-24T00:28:35.947Z,98578.70
2023-04-24T00:32:33.993Z,98574.20
2023-04-24T00:36:31.970Z,98574.73
2023-04-24T00:40:29.972Z,98571.54
2023-04-24T00:44:27.939Z,98573.56
2023-04-24T00:48:26.961Z,98569.94
2023-04-24T00:52:24.967Z,98568.63
2023-04-24T00:56:23.004Z,98570.11
2023-04-24T01:00:21.923Z,98567.81
2023-04-24T01:04:20.187Z,98569.00
2023-04-24T01:08:19.909Z,98562.59
2023-04-24T01:12:20.104Z,98566.95
2023-04-24T01:16:17.984Z,98565.17
2023-04-24T01:20:15.903Z,98565.56
2023-04-24T01:24:13.897Z,98563.61
2023-04-24T01:28:11.894Z,98568.90
2023-04-24T01:32:10.902Z,98562.43
2023-04-24T01:36:09.885Z,98559.66
2023-04-24T01:40:07.871Z,98562.57
2023-04-24T01:44:05.934Z,98558.39
2023-04-24T01:48:04.904Z,98559.80
2023-04-24T01:52:03.117Z,98560.77
2023-04-24T01:56:00.872Z,98555.53
2023-04-24T01:59:58.972Z,98556.80
2023-04-24T02:04:03.922Z,98551.25
2023-04-24T02:08:01.989Z,98551.60
2023-04-24T02:12:02.902Z,98550.25
2023-04-24T02:16:00.982Z,98544.86
2023-04-24T02:19:58.821Z,98543.66
2023-04-24T02:23:56.953Z,98538.88
2023-04-24T02:27:54.833Z,98536.79
2023-04-24T02:31:52.949Z,98532.87
2023-04-24T02:35:50.837Z,98525.86
2023-04-24T02:39:48.823Z,98528.05
2023-04-24T02:43:46.780Z,98522.96
2023-04-24T02:47:44.903Z,98521.88
2023-04-24T02:51:42.779Z,98524.11
2023-04-24T02:55:40.807Z,98525.61
2023-04-24T02:59:39.905Z,98527.16
2023-04-24T03:03:37.958Z,98529.27
2023-04-24T03:07:35.785Z,98524.83
2023-04-24T03:11:33.860Z,98524.91
2023-04-24T03:15:32.814Z,98524.98
2023-04-24T03:19:30.865Z,98524.20
2023-04-24T03:23:32.726Z,98519.38
2023-04-24T03:27:30.790Z,98519.73
2023-04-24T03:31:32.778Z,98517.27
2023-04-24T03:35:30.824Z,98513.48
2023-04-24T03:39:32.774Z,98516.04
2023-04-24T03:43:30.856Z,98513.66
2023-04-24T03:47:29.896Z,98520.42
2023-04-24T03:51:30.768Z,98515.55
2023-04-24T03:55:40.732Z,98512.79
2023-04-24T03:59:38.841Z,98514.44
2023-04-24T04:03:40.896Z,98517.15
2023-04-24T04:07:39.760Z,98519.59
2023-04-24T04:11:37.695Z,98523.00
2023-04-24T04:15:36.896Z,98523.45
2023-04-24T04:19:34.789Z,98523.50
2023-04-24T04:23:32.755Z,98521.63
2023-04-24T04:27:39.677Z,98521.42
2023-04-24T04:31:37.793Z,98524.70
2023-04-24T04:35:36.669Z,98525.06
2023-04-24T04:39:35.738Z,98528.02
2023-04-24T04:43:38.725Z,98525.50
2023-04-24T04:47:39.711Z,98529.72
2023-04-24T04:51:37.659Z,98532.14
2023-04-24T04:55:36.686Z,98528.41
2023-04-24T04:59:39.698Z,98525.26
2023-04-24T05:03:41.758Z,98522.81
2023-04-24T05:07:40.641Z,98522.36
2023-04-24T05:11:39.686Z,98520.96
2023-04-24T05:15:37.628Z,98521.06
2023-04-24T05:19:35.752Z,98525.48
2023-04-24T05:23:33.681Z,98524.05
2023-04-24T05:27:31.666Z,98523.13
2023-04-24T05:31:32.748Z,98522.88
2023-04-24T05:35:30.698Z,98521.72
2023-04-24T05:39:28.675Z,98523.69
2023-04-24T05:43:26.648Z,98522.29
2023-04-24T05:47:24.639Z,98518.98
2023-04-24T05:51:22.702Z,98522.69
2023-04-24T05:55:20.686Z,98520.09
2023-04-24T05:59:18.659Z,98516.21
2023-04-24T06:02:56.716Z,98514.58
2023-04-24T06:06:21.393Z,98512.98
2023-04-24T06:09:45.624Z,98510.21
2023-04-24T06:13:09.696Z,98511.56
2023-04-24T06:16:36.112Z,98505.59
2023-04-24T06:20:07.269Z,98507.33
2023-04-24T06:23:33.676Z,98503.74
2023-04-24T06:26:58.354Z,98502.91
2023-04-24T06:30:22.118Z,98496.08
2023-04-24T06:33:46.049Z,98496.41
2023-04-24T06:37:09.896Z,98497.63
2023-04-24T06:40:34.588Z,98497.09
2023-04-24T06:43:58.716Z,98495.06
2023-04-24T06:47:22.707Z,98495.41
2023-04-24T06:50:48.112Z,98491.64
2023-04-24T06:54:12.272Z,98490.16
2023-04-24T06:57:36.143Z,98491.73
2023-04-24T07:01:00.003Z,98489.23
2023-04-24T07:04:26.347Z,98490.71
2023-04-24T07:07:52.373Z,98494.18
2023-04-24T07:11:16.784Z,98491.54
2023-04-24T07:14:41.995Z,98491.99
2023-04-24T07:18:06.090Z,98492.03
2023-04-24T07:21:30.102Z,98488.85
2023-04-24T07:24:53.938Z,98494.83
2023-04-24T07:28:19.075Z,98491.02
2023-04-24T07:31:43.176Z,98486.72
2023-04-24T07:35:07.846Z,98488.90
2023-04-24T07:38:32.607Z,98486.45
2023-04-24T07:41:56.542Z,98489.17
2023-04-24T07:45:20.477Z,98486.17
2023-04-24T07:48:44.479Z,98484.91
2023-04-24T07:52:08.768Z,98484.61
2023-04-24T07:55:32.862Z,98478.70
2023-04-24T07:58:56.724Z,98478.88
2023-04-24T08:02:22.908Z,98482.53
2023-04-24T08:05:47.232Z,98479.12
2023-04-24T08:09:11.341Z,98481.44
2023-04-24T08:12:35.522Z,98477.48
2023-04-24T08:15:59.416Z,98477.88
2023-04-24T08:19:23.605Z,98475.83
2023-04-24T08:22:48.357Z,98476.74
2023-04-24T08:26:12.808Z,98473.02
2023-04-24T08:29:36.644Z,98474.54
2023-04-24T08:33:00.579Z,98469.97
2023-04-24T08:36:30.435Z,98463.83
2023-04-24T08:40:00.275Z,98466.07
2023-04-24T08:43:25.385Z,98462.16
2023-04-24T08:46:52.427Z,98455.10
2023-04-24T08:50:17.269Z,98458.02
2023-04-24T08:53:42.360Z,98456.50
2023-04-24T08:57:12.618Z,98453.19
2023-04-24T09:00:36.590Z,98451.70
2023-04-24T09:04:05.996Z,98443.27
2023-04-24T09:07:32.438Z,98441.35
2023-04-24T09:10:58.523Z,98442.54
2023-04-24T09:14:24.719Z,98436.46
2023-04-24T09:17:49.303Z,98436.63
2023-04-24T09:21:13.869Z,98440.23
2023-04-24T09:24:37.744Z,98439.78
2023-04-24T09:28:07.934Z,98437.80
2023-04-24T09:31:32.249Z,98441.35
2023-04-24T09:35:14.067Z,98437.71
2023-04-24T09:38:39.603Z,98433.66
2023-04-24T09:42:03.467Z,98431.16
2023-04-24T09:45:37.631Z,98430.58
2023-04-24T09:49:22.410Z,98427.45
2023-04-24T09:52:49.145Z,98423.12
2023-04-24T09:56:14.215Z,98418.98
2023-04-24T09:59:45.155Z,98419.10
2023-04-24T10:03:09.457Z,98415.88
2023-04-24T10:06:37.204Z,98413.19
2023-04-24T10:10:01.589Z,98414.40
2023-04-24T10:13:25.889Z,98410.91
2023-04-24T10:16:50.657Z,98407.03
2023-04-24T10:20:14.888Z,98407.04
2023-04-24T10:23:39.745Z,98402.64
2023-04-24T10:27:05.002Z,98400.16
2023-04-24T10:30:36.348Z,98392.80
2023-04-24T10:34:02.063Z,98389.75
2023-04-24T10:37:27.975Z,98393.73
2023-04-24T10:40:51.945Z,98386.21
2023-04-24T10:44:17.360Z,98381.80
2023-04-24T10:47:45.473Z,98376.52
2023-04-24T10:51:14.122Z,98372.00
2023-04-24T10:54:44.286Z,98372.80
2023-04-24T10:58:08.171Z,98375.84
2023-04-24T11:01:34.369Z,98373.30
2023-04-24T11:04:58.397Z,98367.42
2023-04-24T11:08:31.510Z,98367.25
2023-04-24T11:12:15.474Z,98368.64
2023-04-24T11:15:39.261Z,98370.60
2023-04-24T11:19:05.034Z,98362.79
2023-04-24T11:22:34.350Z,98361.02
2023-04-24T11:26:15.422Z,98359.09
2023-04-24T11:29:43.923Z,98356.95
2023-04-24T11:33:08.363Z,98359.52
2023-04-24T11:36:33.778Z,98353.29
2023-04-24T11:40:00.796Z,98353.89
2023-04-24T11:43:25.978Z,98360.83
2023-04-24T11:46:49.854Z,98357.19
2023-04-24T11:50:16.241Z,98352.85
2023-04-24T11:53:42.206Z,98347.45
2023-04-24T11:57:08.756Z,98341.55
2023-04-24T12:00:35.308Z,98335.27
2023-04-24T12:04:02.598Z,98338.64
2023-04-24T12:07:26.687Z,98336.73
2023-04-24T12:10:53.366Z,98332.67
2023-04-24T12:14:17.247Z,98328.39
2023-04-24T12:17:44.147Z,98323.35
2023-04-24T12:21:23.115Z,98318.57
2023-04-24T12:25:07.056Z,98315.27
2023-04-24T12:28:39.857Z,98309.32
2023-04-24T12:32:03.922Z,98300.70
2023-04-24T12:35:30.892Z,98303.07
2023-04-24T12:38:55.504Z,98300.10
2023-04-24T12:42:31.810Z,98293.02
2023-04-24T12:45:55.795Z,98285.77
2023-04-24T12:49:19.765Z,98278.71
2023-04-24T12:52:45.384Z,98271.73
2023-04-24T12:56:09.265Z,98273.63
2023-04-24T12:59:33.273Z,98267.94
2023-04-24T13:02:57.377Z,98262.64
2023-04-24T13:06:22.396Z,98265.47
2023-04-24T13:09:46.432Z,98265.11
2023-04-24T13:13:10.954Z,98257.52
2023-04-24T13:16:34.970Z,98250.11
2023-04-24T13:19:58.828Z,98248.15
2023-04-24T13:23:24.227Z,98239.85
2023-04-24T13:26:48.277Z,98238.94
2023-04-24T13:30:12.711Z,98238.03
2023-04-24T13:33:57.233Z,98226.65
2023-04-24T13:37:56.125Z,98218.77
2023-04-24T13:41:55.271Z,98219.29
2023-04-24T13:45:53.272Z,98214.52
2023-04-24T13:49:51.195Z,98207.66
2023-04-24T13:53:49.125Z,98204.80
2023-04-24T13:57:47.259Z,98206.25
2023-04-24T14:01:45.158Z,98202.27
2023-04-24T14:05:43.159Z,98203.80
2023-04-24T14:09:41.116Z,98198.58
2023-04-24T14:13:39.145Z,98194.73
2023-04-24T14:17:37.181Z,98192.70
2023-04-24T14:21:35.108Z,98196.31
2023-04-24T14:25:33.106Z,98188.42
2023-04-24T14:29:35.288Z,98190.08
2023-04-24T14:33:33.176Z,98188.84
2023-04-24T14:37:31.151Z,98196.11
2023-04-24T14:41:29.098Z,98194.23
2023-04-24T14:45:27.210Z,98189.02
2023-04-24T14:49:26.111Z,98188.39
2023-04-24T14:53:24.147Z,98184.90
2023-04-24T14:57:16.476Z,98181.56
2023-04-24T15:01:14.188Z,98178.79
2023-04-24T15:05:12.473Z,98179.58
2023-04-24T15:09:10.074Z,98169.84
2023-04-24T15:13:08.159Z,98173.21
2023-04-24T15:17:06.308Z,98176.89
2023-04-24T15:21:04.034Z,98173.41
2023-04-24T15:25:02.181Z,98171.88
2023-04-24T15:29:00.058Z,98164.92
2023-04-24T15:32:58.265Z,98167.91
2023-04-24T15:37:03.091Z,98155.47
2023-04-24T15:41:01.137Z,98155.02
2023-04-24T15:44:59.044Z,98152.08
2023-04-24T15:49:00.185Z,98149.41
2023-04-24T15:52:58.044Z,98151.08
2023-04-24T15:56:56.147Z,98147.93
2023-04-24T16:00:53.984Z,98142.27
2023-04-24T16:04:52.215Z,98141.59
2023-04-24T16:08:51.103Z,98136.81
2023-04-24T16:12:49.065Z,98135.04
2023-04-24T16:16:46.984Z,98133.69
2023-04-24T16:20:45.079Z,98134.23
2023-04-24T16:24:42.987Z,98138.70
2023-04-24T16:28:41.101Z,98139.57
2023-04-24T16:32:38.999Z,98135.81
2023-04-24T16:36:38.187Z,98137.78
2023-04-24T16:40:35.963Z,98135.70
2023-04-24T16:44:33.990Z,98133.35
2023-04-24T16:48:32.013Z,98129.16
2023-04-24T16:52:31.036Z,98136.08
2023-04-24T16:56:29.008Z,98134.21
2023-04-24T17:00:28.008Z,98136.20
2023-04-24T17:04:26.304Z,98137.35
2023-04-24T17:08:25.000Z,98139.33
2023-04-24T17:12:24.201Z,98138.02
2023-04-24T17:16:22.017Z,98132.91
2023-04-24T17:20:23.334Z,98131.86
2023-04-24T17:24:22.498Z,98132.59
2023-04-24T17:28:35.931Z,98129.15
2023-04-24T17:32:33.956Z,98135.02
2023-04-24T17:36:31.953Z,98134.66
2023-04-24T17:40:30.016Z,98139.54
2023-04-24T17:44:27.901Z,98137.34
2023-04-24T17:48:27.002Z,98137.26
2023-04-24T17:52:24.982Z,98139.14
2023-04-24T17:56:22.972Z,98141.79
2023-04-24T18:00:21.934Z,98145.61
2023-04-24T18:04:20.261Z,98149.06
2023-04-24T18:08:20.102Z,98151.98
2023-04-24T18:12:18.044Z,98154.59
2023-04-24T18:16:15.918Z,98155.11
2023-04-24T18:20:14.003Z,98160.95
2023-04-24T18:24:11.984Z,98168.11
2023-04-24T18:28:09.953Z,98169.24
2023-04-24T18:32:07.939Z,98168.38
2023-04-24T18:36:05.939Z,98167.84
2023-04-24T18:39:57.143Z,98171.41
2023-04-24T18:43:54.912Z,98189.73
2023-04-24T18:47:52.930Z,98189.96
2023-04-24T18:51:54.345Z,98186.09
2023-04-24T18:55:52.845Z,98191.63
2023-04-24T18:59:50.903Z,98189.66
2023-04-24T19:03:50.120Z,98190.94
2023-04-24T19:07:48.926Z,98189.05
2023-04-24T19:11:47.879Z,98183.11
2023-04-24T19:15:46.813Z,98185.73
2023-04-24T19:19:45.810Z,98187.20
2023-04-24T19:23:45.959Z,98182.98
2023-04-24T19:27:43.840Z,98183.56
2023-04-24T19:31:44.968Z,98178.27
2023-04-24T19:35:48.900Z,98175.23
2023-04-24T19:39:46.836Z,98177.93
2023-04-24T19:43:44.783Z,98180.27
2023-04-24T19:47:42.948Z,98177.83
2023-04-24T19:51:40.789Z,98172.75
2023-04-24T19:55:38.807Z,98171.87
2023-04-24T19:59:36.789Z,98171.57
2023-04-24T20:03:35.205Z,98169.38
2023-04-24T20:07:32.841Z,98170.92
2023-04-24T20:11:30.822Z,98177.61
2023-04-24T20:15:28.809Z,98187.02
2023-04-24T20:19:26.832Z,98195.59
2023-04-24T20:23:24.767Z,98196.16
2023-04-24T20:27:22.865Z,98201.08
2023-04-24T20:31:20.805Z,98202.53
2023-04-24T20:35:18.755Z,98206.35
2023-04-24T20:39:16.731Z,98204.55
2023-04-24T20:43:14.862Z,98201.74
2023-04-24T20:47:12.663Z,98199.96
2023-04-24T20:51:10.716Z,98199.97
2023-04-24T20:55:08.854Z,98201.55
2023-04-24T20:59:06.777Z,98205.02
2023-04-24T21:03:04.842Z,98204.45
2023-04-24T21:07:02.744Z,98208.74
2023-04-24T21:11:00.712Z,98210.14
2023-04-24T21:14:58.748Z,98207.02
2023-04-24T21:18:56.721Z,98208.59
2023-04-24T21:22:54.702Z,98206.95
2023-04-24T21:26:53.755Z,98205.27
2023-04-24T21:30:51.733Z,98201.75
2023-04-24T21:34:49.742Z,98198.92
2023-04-24T21:38:47.687Z,98194.86
2023-04-24T21:42:45.667Z,98196.85
2023-04-24T21:46:43.924Z,98196.88
2023-04-24T21:50:41.760Z,98197.45
2023-04-24T21:54:39.703Z,98195.10
2023-04-24T21:58:37.703Z,98196.59
2023-04-24T22:02:35.898Z,98194.20
2023-04-24T22:06:33.752Z,98193.08
2023-04-24T22:10:32.645Z,98190.77
2023-04-24T22:14:31.752Z,98186.68
2023-04-24T22:18:40.055Z,98184.48
2023-04-24T22:22:44.621Z,98182.44
2023-04-24T22:26:42.694Z,98179.58
2023-04-24T22:30:40.677Z,98179.42
2023-04-24T22:34:38.757Z,98178.95
2023-04-24T22:38:36.602Z,98181.02
2023-04-24T22:42:34.602Z,98177.12
2023-04-24T22:46:32.550Z,98170.69
2023-04-24T22:50:30.655Z,98163.44
2023-04-24T22:54:29.934Z,98156.80
2023-04-24T22:58:27.641Z,98149.89
2023-04-24T23:02:25.706Z,98144.23
2023-04-24T23:06:24.550Z,98131.27
2023-04-24T23:10:22.556Z,98116.12
2023-04-24T23:14:20.584Z,98105.75
2023-04-24T23:18:18.651Z,98091.16
2023-04-24T23:22:16.547Z,98101.71
2023-04-24T23:26:14.570Z,98117.34
2023-04-24T23:30:13.525Z,98113.70
2023-04-24T23:34:11.601Z,98108.60
2023-04-24T23:38:09.589Z,98111.41
2023-04-24T23:42:09.510Z,98105.30
2023-04-24T23:46:07.576Z,98100.11
2023-04-24T23:50:05.492Z,98101.50
2023-04-24T23:54:03.545Z,98099.13
2023-04-24T23:58:01.534Z,98099.59
